createdAt,value
2017-04-29T00:00:19.049Z,36.81
2017-04-29T00:01:19.075Z,36.81
2017-04-29T00:02:18.787Z,37.01
2017-04-29T00:03:19.130Z,36.52
2017-04-29T00:04:19.153Z,37.19
2017-04-29T00:05:19.181Z,37.39
2017-04-29T00:06:19.198Z,37.29
2017-04-29T00:07:19.232Z,37.19
2017-04-29T00:08:19.260Z,37.29
2017-04-29T00:09:19.286Z,37.19
2017-04-29T00:10:19.312Z,37.01
2017-04-29T00:11:19.335Z,37.29
2017-04-29T00:12:19.367Z,37.1
2017-04-29T00:13:19.080Z,37.01
2017-04-29T00:14:19.416Z,37.19
2017-04-29T00:15:19.448Z,37.19
2017-04-29T00:16:19.158Z,37.29
2017-04-29T00:17:19.185Z,37.29
2017-04-29T00:18:19.523Z,37.29
2017-04-29T00:19:19.548Z,37.1
2017-04-29T00:20:19.263Z,37.19
2017-04-29T00:21:19.601Z,37.19
2017-04-29T00:22:19.653Z,36.91
2017-04-29T00:23:19.345Z,36.91
2017-04-29T00:24:19.679Z,36.91
2017-04-29T00:25:19.715Z,36.91
2017-04-29T00:26:19.731Z,37.1
2017-04-29T00:27:19.762Z,37.1
2017-04-29T00:28:19.786Z,37.1
2017-04-29T00:29:19.810Z,36.91
2017-04-29T00:30:19.840Z,37.1
2017-04-29T00:31:19.549Z,36.91
2017-04-29T00:32:19.890Z,37.39
2017-04-29T00:33:19.922Z,36.91
2017-04-29T00:34:19.947Z,37.01
2017-04-29T00:35:19.972Z,37.01
2017-04-29T00:36:19.993Z,37.01
2017-04-29T00:37:20.021Z,37.39
2017-04-29T00:38:20.046Z,37.01
2017-04-29T00:39:20.074Z,37.1
2017-04-29T00:40:19.791Z,37.58
2017-04-29T00:41:20.129Z,37.68
2017-04-29T00:42:19.837Z,37.58
2017-04-29T00:43:20.178Z,37.48
2017-04-29T00:44:20.202Z,37.39
2017-04-29T00:45:19.946Z,37.39
2017-04-29T00:46:20.260Z,37.58
2017-04-29T00:47:19.969Z,37.39
2017-04-29T00:48:20.001Z,37.48
2017-04-29T00:49:20.344Z,37.48
2017-04-29T00:50:20.363Z,37.39
2017-04-29T00:51:20.393Z,37.1
2017-04-29T00:52:20.415Z,37.48
2017-04-29T00:53:20.445Z,37.46
2017-04-29T00:54:20.466Z,37.48
2017-04-29T00:55:20.496Z,37.01
2017-04-29T00:56:20.212Z,37.46
2017-04-29T00:57:20.552Z,37.27
2017-04-29T00:58:20.569Z,37.08
2017-04-29T00:59:20.599Z,37.18
2017-04-29T01:00:20.627Z,37.27
2017-04-29T01:01:20.910Z,37.18
2017-04-29T01:02:20.681Z,37.27
2017-04-29T01:03:20.395Z,37.27
2017-04-29T01:04:20.731Z,37.37
2017-04-29T01:05:20.758Z,37.46
2017-04-29T01:06:21.031Z,37.27
2017-04-29T01:07:20.812Z,37.08
2017-04-29T01:08:20.531Z,37.37
2017-04-29T01:09:20.860Z,37.37
2017-04-29T01:10:20.882Z,37.37
2017-04-29T01:11:21.166Z,37.37
2017-04-29T01:12:20.938Z,37.27
2017-04-29T01:13:20.973Z,37.18
2017-04-29T01:14:20.989Z,37.27
2017-04-29T01:15:20.710Z,37.27
2017-04-29T01:16:21.303Z,37.18
2017-04-29T01:17:21.072Z,37.18
2017-04-29T01:18:21.101Z,37.18
2017-04-29T01:19:20.812Z,37.08
2017-04-29T01:20:21.148Z,37.27
2017-04-29T01:21:21.114Z,36.99
2017-04-29T01:22:20.890Z,37.27
2017-04-29T01:23:21.228Z,37.18
2017-04-29T01:24:21.261Z,36.99
2017-04-29T01:25:20.968Z,37.18
2017-04-29T01:26:21.245Z,37.27
2017-04-29T01:27:21.017Z,37.56
2017-04-29T01:28:21.047Z,37.37
2017-04-29T01:29:21.388Z,37.18
2017-04-29T01:30:21.410Z,37.46
2017-04-29T01:31:21.689Z,37.46
2017-04-29T01:32:21.462Z,37.46
2017-04-29T01:33:21.490Z,37.56
2017-04-29T01:34:21.516Z,37.27
2017-04-29T01:35:21.537Z,37.18
2017-04-29T01:36:21.822Z,37.27
2017-04-29T01:37:21.279Z,37.18
2017-04-29T01:38:21.620Z,37.18
2017-04-29T01:39:21.649Z,37.56
2017-04-29T01:40:21.361Z,37.27
2017-04-29T01:41:21.694Z,37.56
2017-04-29T01:42:21.722Z,37.27
2017-04-29T01:43:21.442Z,37.46
2017-04-29T01:44:21.771Z,37.27
2017-04-29T01:45:21.800Z,37.27
2017-04-29T01:46:21.520Z,37.66
2017-04-29T01:47:21.854Z,37.37
2017-04-29T01:48:21.881Z,37.27
2017-04-29T01:49:21.595Z,37.46
2017-04-29T01:50:21.932Z,37.66
2017-04-29T01:51:21.644Z,37.46
2017-04-29T01:52:21.988Z,37.46
2017-04-29T01:53:22.009Z,37.56
2017-04-29T01:54:22.036Z,37.18
2017-04-29T01:55:22.072Z,37.56
2017-04-29T01:56:22.084Z,37.56
2017-04-29T01:57:21.801Z,37.27
2017-04-29T01:58:21.830Z,37.46
2017-04-29T01:59:22.162Z,37.56
2017-04-29T02:00:21.876Z,37.76
2017-04-29T02:01:21.909Z,37.76
2017-04-29T02:02:22.246Z,37.56
2017-04-29T02:03:21.958Z,37.66
2017-04-29T02:04:21.979Z,37.46
2017-04-29T02:05:22.323Z,37.76
2017-04-29T02:06:22.348Z,37.66
2017-04-29T02:07:22.373Z,37.66
2017-04-29T02:08:22.091Z,37.76
2017-04-29T02:09:22.425Z,37.76
2017-04-29T02:10:22.450Z,37.66
2017-04-29T02:11:22.479Z,37.66
2017-04-29T02:12:22.504Z,37.76
2017-04-29T02:13:22.217Z,37.76
2017-04-29T02:14:22.242Z,37.85
2017-04-29T02:15:22.270Z,37.76
2017-04-29T02:16:22.295Z,37.76
2017-04-29T02:17:22.324Z,37.37
2017-04-29T02:18:22.661Z,37.66
2017-04-29T02:19:22.682Z,37.35
2017-04-29T02:20:22.711Z,37.37
2017-04-29T02:21:22.740Z,37.56
2017-04-29T02:22:22.764Z,37.56
2017-04-29T02:23:22.473Z,37.56
2017-04-29T02:24:22.814Z,37.56
2017-04-29T02:25:22.842Z,37.66
2017-04-29T02:26:22.551Z,37.54
2017-04-29T02:27:22.898Z,37.54
2017-04-29T02:28:22.604Z,37.54
2017-04-29T02:29:22.946Z,37.64
2017-04-29T02:30:22.658Z,37.54
2017-04-29T02:31:23.000Z,37.83
2017-04-29T02:32:23.023Z,37.64
2017-04-29T02:33:23.045Z,37.45
2017-04-29T02:34:23.069Z,37.54
2017-04-29T02:35:23.103Z,37.66
2017-04-29T02:36:22.810Z,37.54
2017-04-29T02:37:23.144Z,37.93
2017-04-29T02:38:22.868Z,37.93
2017-04-29T02:39:23.236Z,37.93
2017-04-29T02:40:22.921Z,37.74
2017-04-29T02:41:23.254Z,37.64
2017-04-29T02:42:23.281Z,37.93
2017-04-29T02:43:23.306Z,37.83
2017-04-29T02:44:23.348Z,37.93
2017-04-29T02:45:23.359Z,37.93
2017-04-29T02:46:23.385Z,37.83
2017-04-29T02:47:23.412Z,37.93
2017-04-29T02:48:23.119Z,37.83
2017-04-29T02:49:23.463Z,37.93
2017-04-29T02:50:23.177Z,37.93
2017-04-29T02:51:23.514Z,37.74
2017-04-29T02:52:23.537Z,37.93
2017-04-29T02:53:23.563Z,37.93
2017-04-29T02:54:23.593Z,37.83
2017-04-29T02:55:23.306Z,37.54
2017-04-29T02:56:23.645Z,37.74
2017-04-29T02:57:23.919Z,37.64
2017-04-29T02:58:23.695Z,37.74
2017-04-29T02:59:23.711Z,37.54
2017-04-29T03:00:23.748Z,37.83
2017-04-29T03:01:23.773Z,37.83
2017-04-29T03:02:24.045Z,37.74
2017-04-29T03:03:23.826Z,37.74
2017-04-29T03:04:23.847Z,37.64
2017-04-29T03:05:23.876Z,37.83
2017-04-29T03:06:23.901Z,37.83
2017-04-29T03:07:24.176Z,37.64
2017-04-29T03:08:23.642Z,37.74
2017-04-29T03:09:23.660Z,37.54
2017-04-29T03:10:23.688Z,37.54
2017-04-29T03:11:24.035Z,37.54
2017-04-29T03:12:24.310Z,37.54
2017-04-29T03:13:23.766Z,37.54
2017-04-29T03:14:24.112Z,38.02
2017-04-29T03:15:24.132Z,37.64
2017-04-29T03:16:24.174Z,37.64
2017-04-29T03:17:24.436Z,37.74
2017-04-29T03:18:23.898Z,38.02
2017-04-29T03:19:24.243Z,37.45
2017-04-29T03:20:24.262Z,38.02
2017-04-29T03:21:24.282Z,37.74
2017-04-29T03:22:24.564Z,37.45
2017-04-29T03:23:24.338Z,37.45
2017-04-29T03:24:24.371Z,38.22
2017-04-29T03:25:24.389Z,38.12
2017-04-29T03:26:24.413Z,38.12
2017-04-29T03:27:24.692Z,38.02
2017-04-29T03:28:24.470Z,38.12
2017-04-29T03:29:24.493Z,37.93
2017-04-29T03:30:24.519Z,38.02
2017-04-29T03:31:24.543Z,37.93
2017-04-29T03:32:24.820Z,37.93
2017-04-29T03:33:24.286Z,38.12
2017-04-29T03:34:24.305Z,38.12
2017-04-29T03:35:24.650Z,38.02
2017-04-29T03:36:24.673Z,37.54
2017-04-29T03:37:24.696Z,37.93
2017-04-29T03:38:24.725Z,37.93
2017-04-29T03:39:24.445Z,38.02
2017-04-29T03:40:24.774Z,38.02
2017-04-29T03:41:24.803Z,37.93
2017-04-29T03:42:24.826Z,37.83
2017-04-29T03:43:24.852Z,37.93
2017-04-29T03:44:24.889Z,38.02
2017-04-29T03:45:24.906Z,38.02
2017-04-29T03:46:24.932Z,37.74
2017-04-29T03:47:24.956Z,37.72
2017-04-29T03:48:24.988Z,37.83
2017-04-29T03:49:25.009Z,37.83
2017-04-29T03:50:25.033Z,38.02
2017-04-29T03:51:25.065Z,37.93
2017-04-29T03:52:24.774Z,37.64
2017-04-29T03:53:25.121Z,37.74
2017-04-29T03:54:25.135Z,37.64
2017-04-29T03:55:25.164Z,37.64
2017-04-29T03:56:25.193Z,37.74
2017-04-29T03:57:25.210Z,38.02
2017-04-29T03:58:25.239Z,37.83
2017-04-29T03:59:25.264Z,37.83
2017-04-29T04:00:25.290Z,37.74
2017-04-29T04:01:25.319Z,37.74
2017-04-29T04:02:25.341Z,37.64
2017-04-29T04:03:25.371Z,37.74
2017-04-29T04:04:25.389Z,37.83
2017-04-29T04:05:25.416Z,37.74
2017-04-29T04:06:25.141Z,37.83
2017-04-29T04:07:25.475Z,37.93
2017-04-29T04:08:25.504Z,37.72
2017-04-29T04:09:25.524Z,37.74
2017-04-29T04:10:25.547Z,37.91
2017-04-29T04:11:25.574Z,37.93
2017-04-29T04:12:25.597Z,38.01
2017-04-29T04:13:25.619Z,37.83
2017-04-29T04:14:25.651Z,38.02
2017-04-29T04:15:25.676Z,37.83
2017-04-29T04:16:25.377Z,38.02
2017-04-29T04:17:25.728Z,38.02
2017-04-29T04:18:25.755Z,38.01
2017-04-29T04:19:25.783Z,38.1
2017-04-29T04:20:25.805Z,38.01
2017-04-29T04:21:25.521Z,37.74
2017-04-29T04:22:25.854Z,37.62
2017-04-29T04:23:25.881Z,38.02
2017-04-29T04:24:25.592Z,37.93
2017-04-29T04:25:25.934Z,37.62
2017-04-29T04:26:25.956Z,38.12
2017-04-29T04:27:25.978Z,37.83
2017-04-29T04:28:26.010Z,38.31
2017-04-29T04:29:25.723Z,37.83
2017-04-29T04:30:26.060Z,38.12
2017-04-29T04:31:26.080Z,37.64
2017-04-29T04:32:26.110Z,38.12
2017-04-29T04:33:26.139Z,37.83
2017-04-29T04:34:26.162Z,37.83
2017-04-29T04:35:26.191Z,37.74
2017-04-29T04:36:25.900Z,37.93
2017-04-29T04:37:26.240Z,37.83
2017-04-29T04:38:25.946Z,37.93
2017-04-29T04:39:26.290Z,38.12
2017-04-29T04:40:26.314Z,38.02
2017-04-29T04:41:26.344Z,37.83
2017-04-29T04:42:26.369Z,38.02
2017-04-29T04:43:26.399Z,37.83
2017-04-29T04:44:26.418Z,38.02
2017-04-29T04:45:26.447Z,37.74
2017-04-29T04:46:26.154Z,37.83
2017-04-29T04:47:26.495Z,37.83
2017-04-29T04:48:26.518Z,38.02
2017-04-29T04:49:26.546Z,37.64
2017-04-29T04:50:26.574Z,37.74
2017-04-29T04:51:26.599Z,37.64
2017-04-29T04:52:26.620Z,37.64
2017-04-29T04:53:26.650Z,37.56
2017-04-29T04:54:26.673Z,37.74
2017-04-29T04:55:26.702Z,37.74
2017-04-29T04:56:26.731Z,37.93
2017-04-29T04:57:26.751Z,37.95
2017-04-29T04:58:26.789Z,37.85
2017-04-29T04:59:26.806Z,37.66
2017-04-29T05:00:26.826Z,37.56
2017-04-29T05:01:26.855Z,37.85
2017-04-29T05:02:26.883Z,37.76
2017-04-29T05:03:26.908Z,37.46
2017-04-29T05:04:26.933Z,37.56
2017-04-29T05:05:26.949Z,37.46
2017-04-29T05:06:26.986Z,37.56
2017-04-29T05:07:27.010Z,37.18
2017-04-29T05:08:27.037Z,37.08
2017-04-29T05:09:26.749Z,37.18
2017-04-29T05:10:27.093Z,37.37
2017-04-29T05:11:26.798Z,37.37
2017-04-29T05:12:27.140Z,37.18
2017-04-29T05:13:27.167Z,37.39
2017-04-29T05:14:27.194Z,37.48
2017-04-29T05:15:27.213Z,37.46
2017-04-29T05:16:26.929Z,37.48
2017-04-29T05:17:27.275Z,37.08
2017-04-29T05:18:26.979Z,37.1
2017-04-29T05:19:27.320Z,37.1
2017-04-29T05:20:27.345Z,37.29
2017-04-29T05:21:27.374Z,37.1
2017-04-29T05:22:27.397Z,37.19
2017-04-29T05:23:27.111Z,37.19
2017-04-29T05:24:27.456Z,37.29
2017-04-29T05:25:27.477Z,36.52
2017-04-29T05:26:27.189Z,36.71
2017-04-29T05:27:27.526Z,36.81
2017-04-29T05:28:27.554Z,37.01
2017-04-29T05:29:27.271Z,36.81
2017-04-29T05:30:27.606Z,36.71
2017-04-29T05:31:27.319Z,36.71
2017-04-29T05:32:27.362Z,36.71
2017-04-29T05:33:27.679Z,36.61
2017-04-29T05:34:27.708Z,36.81
2017-04-29T05:35:27.735Z,36.52
2017-04-29T05:36:27.448Z,36.71
2017-04-29T05:37:27.786Z,36.71
2017-04-29T05:38:27.503Z,36.71
2017-04-29T05:39:27.524Z,36.44
2017-04-29T05:40:27.863Z,36.33
2017-04-29T05:41:27.892Z,36.63
2017-04-29T05:42:27.918Z,36.35
2017-04-29T05:43:27.942Z,36.73
2017-04-29T05:44:27.976Z,36.54
2017-04-29T05:45:27.995Z,36.54
2017-04-29T05:46:27.709Z,36.54
2017-04-29T05:47:27.732Z,36.54
2017-04-29T05:48:28.069Z,36.44
2017-04-29T05:49:27.786Z,36.54
2017-04-29T05:50:27.815Z,36.54
2017-04-29T05:51:28.152Z,36.54
2017-04-29T05:52:28.177Z,36.35
2017-04-29T05:53:27.898Z,36.25
2017-04-29T05:54:27.922Z,36.35
2017-04-29T05:55:28.251Z,36.35
2017-04-29T05:56:28.284Z,36.35
2017-04-29T05:57:28.309Z,36.35
2017-04-29T05:58:28.334Z,36.35
2017-04-29T05:59:28.051Z,36.06
2017-04-29T06:00:28.383Z,35.96
2017-04-29T06:01:28.411Z,36.06
2017-04-29T06:02:28.441Z,36.44
2017-04-29T06:03:28.466Z,36.35
2017-04-29T06:04:28.516Z,36.35
2017-04-29T06:05:28.515Z,36.35
2017-04-29T06:06:28.544Z,36.15
2017-04-29T06:07:28.573Z,36.35
2017-04-29T06:08:28.601Z,36.15
2017-04-29T06:09:28.622Z,36.06
2017-04-29T06:10:28.652Z,36.07
2017-04-29T06:11:28.671Z,36.06
2017-04-29T06:12:28.700Z,36.06
2017-04-29T06:13:28.728Z,36.15
2017-04-29T06:14:28.752Z,36.15
2017-04-29T06:15:28.466Z,36.17
2017-04-29T06:16:28.803Z,36.06
2017-04-29T06:17:28.520Z,36.17
2017-04-29T06:18:29.113Z,36.17
2017-04-29T06:19:28.886Z,35.98
2017-04-29T06:20:28.911Z,35.98
2017-04-29T06:21:28.941Z,35.78
2017-04-29T06:22:28.963Z,35.78
2017-04-29T06:23:29.236Z,35.88
2017-04-29T06:24:29.021Z,35.78
2017-04-29T06:25:29.042Z,35.69
2017-04-29T06:26:28.759Z,35.78
2017-04-29T06:27:29.093Z,35.88
2017-04-29T06:28:29.375Z,35.78
2017-04-29T06:29:29.149Z,35.88
2017-04-29T06:30:29.173Z,35.78
2017-04-29T06:31:29.198Z,35.78
2017-04-29T06:32:29.228Z,35.78
2017-04-29T06:33:29.503Z,35.5
2017-04-29T06:34:29.276Z,35.98
2017-04-29T06:35:28.994Z,35.78
2017-04-29T06:36:29.023Z,35.78
2017-04-29T06:37:29.363Z,35.78
2017-04-29T06:38:29.636Z,35.78
2017-04-29T06:39:29.097Z,35.4
2017-04-29T06:40:29.432Z,35.88
2017-04-29T06:41:29.153Z,35.69
2017-04-29T06:42:29.491Z,35.78
2017-04-29T06:43:29.768Z,35.78
2017-04-29T06:44:29.235Z,35.88
2017-04-29T06:45:29.573Z,35.5
2017-04-29T06:46:29.598Z,35.5
2017-04-29T06:47:29.624Z,35.59
2017-04-29T06:48:29.907Z,35.78
2017-04-29T06:49:29.677Z,35.78
2017-04-29T06:50:29.393Z,35.59
2017-04-29T06:51:29.730Z,35.69
2017-04-29T06:52:29.750Z,35.59
2017-04-29T06:53:29.787Z,35.78
2017-04-29T06:54:29.499Z,35.59
2017-04-29T06:55:29.520Z,35.69
2017-04-29T06:56:29.548Z,35.69
2017-04-29T06:57:29.891Z,35.78
2017-04-29T06:58:29.602Z,35.59
2017-04-29T06:59:29.628Z,35.69
2017-04-29T07:00:29.968Z,35.69
2017-04-29T07:01:29.993Z,35.59
2017-04-29T07:02:30.022Z,35.78
2017-04-29T07:03:30.042Z,35.69
2017-04-29T07:04:30.070Z,35.69
2017-04-29T07:05:29.789Z,35.59
2017-04-29T07:06:29.819Z,35.69
2017-04-29T07:07:30.157Z,35.78
2017-04-29T07:08:29.867Z,35.59
2017-04-29T07:09:30.208Z,35.69
2017-04-29T07:10:30.227Z,35.69
2017-04-29T07:11:30.260Z,35.88
2017-04-29T07:12:29.973Z,36.07
2017-04-29T07:13:30.315Z,35.69
2017-04-29T07:14:30.028Z,35.59
2017-04-29T07:15:30.360Z,35.59
2017-04-29T07:16:30.393Z,35.69
2017-04-29T07:17:30.417Z,35.88
2017-04-29T07:18:30.131Z,35.78
2017-04-29T07:19:30.471Z,35.69
2017-04-29T07:20:30.499Z,35.69
2017-04-29T07:21:30.524Z,35.69
2017-04-29T07:22:30.553Z,35.69
2017-04-29T07:23:30.582Z,35.78
2017-04-29T07:24:30.291Z,35.78
2017-04-29T07:25:30.319Z,35.69
2017-04-29T07:26:30.661Z,35.69
2017-04-29T07:27:30.373Z,35.5
2017-04-29T07:28:30.705Z,35.59
2017-04-29T07:29:30.990Z,35.98
2017-04-29T07:30:30.767Z,35.78
2017-04-29T07:31:30.790Z,35.78
2017-04-29T07:32:30.816Z,35.88
2017-04-29T07:33:30.846Z,35.88
2017-04-29T07:34:31.125Z,35.38
2017-04-29T07:35:30.907Z,35.59
2017-04-29T07:36:30.928Z,35.4
2017-04-29T07:37:30.952Z,36.06
2017-04-29T07:38:30.978Z,35.88
2017-04-29T07:39:31.242Z,35.86
2017-04-29T07:40:31.030Z,35.96
2017-04-29T07:41:31.067Z,35.88
2017-04-29T07:42:30.773Z,35.58
2017-04-29T07:43:31.114Z,35.78
2017-04-29T07:44:31.383Z,35.77
2017-04-29T07:45:30.853Z,35.88
2017-04-29T07:46:31.188Z,35.77
2017-04-29T07:47:31.216Z,35.77
2017-04-29T07:48:31.246Z,35.78
2017-04-29T07:49:31.521Z,35.86
2017-04-29T07:50:30.987Z,35.77
2017-04-29T07:51:31.326Z,35.78
2017-04-29T07:52:31.041Z,35.77
2017-04-29T07:53:31.384Z,35.86
2017-04-29T07:54:31.349Z,35.78
2017-04-29T07:55:31.114Z,35.86
2017-04-29T07:56:31.455Z,35.77
2017-04-29T07:57:31.479Z,35.96
2017-04-29T07:58:31.503Z,36.06
2017-04-29T07:59:31.789Z,35.77
2017-04-29T08:00:31.561Z,35.77
2017-04-29T08:01:31.589Z,35.86
2017-04-29T08:02:31.611Z,35.86
2017-04-29T08:03:31.643Z,35.48
2017-04-29T08:04:31.920Z,35.77
2017-04-29T08:05:31.693Z,35.77
2017-04-29T08:06:31.721Z,35.78
2017-04-29T08:07:31.435Z,35.77
2017-04-29T08:08:31.783Z,35.86
2017-04-29T08:09:31.800Z,35.77
2017-04-29T08:10:31.829Z,35.86
2017-04-29T08:11:31.851Z,35.78
2017-04-29T08:12:31.883Z,35.77
2017-04-29T08:13:31.596Z,35.77
2017-04-29T08:14:31.938Z,35.48
2017-04-29T08:15:31.965Z,35.5
2017-04-29T08:16:31.678Z,35.48
2017-04-29T08:17:32.015Z,35.67
2017-04-29T08:18:32.039Z,35.78
2017-04-29T08:19:31.756Z,35.78
2017-04-29T08:20:31.781Z,35.88
2017-04-29T08:21:32.122Z,35.88
2017-04-29T08:22:32.152Z,35.88
2017-04-29T08:23:32.173Z,36.17
2017-04-29T08:24:32.200Z,35.5
2017-04-29T08:25:32.228Z,35.5
2017-04-29T08:26:31.942Z,35.59
2017-04-29T08:27:31.969Z,35.69
2017-04-29T08:28:32.308Z,35.88
2017-04-29T08:29:32.342Z,35.69
2017-04-29T08:30:32.365Z,35.59
2017-04-29T08:31:32.389Z,35.98
2017-04-29T08:32:32.098Z,35.78
2017-04-29T08:33:32.442Z,35.69
2017-04-29T08:34:32.465Z,35.59
2017-04-29T08:35:32.500Z,35.78
2017-04-29T08:36:32.520Z,35.78
2017-04-29T08:37:32.554Z,35.59
2017-04-29T08:38:32.574Z,35.5
2017-04-29T08:39:32.293Z,35.78
2017-04-29T08:40:32.628Z,35.98
2017-04-29T08:41:32.652Z,35.88
2017-04-29T08:42:32.371Z,35.69
2017-04-29T08:43:32.710Z,35.69
2017-04-29T08:44:32.418Z,35.88
2017-04-29T08:45:32.756Z,35.11
2017-04-29T08:46:32.789Z,35.98
2017-04-29T08:47:32.813Z,35.98
2017-04-29T08:48:32.527Z,35.5
2017-04-29T08:49:32.555Z,36.07
2017-04-29T08:50:32.895Z,35.98
2017-04-29T08:51:32.924Z,36.07
2017-04-29T08:52:32.948Z,36.07
2017-04-29T08:53:32.977Z,35.88
2017-04-29T08:54:32.690Z,35.02
2017-04-29T08:55:33.032Z,36.17
2017-04-29T08:56:32.744Z,35.88
2017-04-29T08:57:32.773Z,35.02
2017-04-29T08:58:32.801Z,35.88
2017-04-29T08:59:33.139Z,36.07
2017-04-29T09:00:33.160Z,35.88
2017-04-29T09:01:33.191Z,35.69
2017-04-29T09:02:32.908Z,35.78
2017-04-29T09:03:33.245Z,35.88
2017-04-29T09:04:33.278Z,35.69
2017-04-29T09:05:32.982Z,35.69
2017-04-29T09:06:33.012Z,35.78
2017-04-29T09:07:33.352Z,35.59
2017-04-29T09:08:33.381Z,35.88
2017-04-29T09:09:33.405Z,35.88
2017-04-29T09:10:33.430Z,35.59
2017-04-29T09:11:33.455Z,35.59
2017-04-29T09:12:33.492Z,35.59
2017-04-29T09:13:33.511Z,35.59
2017-04-29T09:14:33.235Z,35.69
2017-04-29T09:15:33.817Z,35.5
2017-04-29T09:16:33.286Z,35.5
2017-04-29T09:17:33.315Z,35.88
2017-04-29T09:18:33.649Z,35.78
2017-04-29T09:19:33.677Z,35.88
2017-04-29T09:20:33.949Z,35.78
2017-04-29T09:21:33.731Z,35.5
2017-04-29T09:22:33.755Z,35.59
2017-04-29T09:23:33.786Z,35.69
2017-04-29T09:24:33.497Z,35.78
2017-04-29T09:25:33.778Z,35.59
2017-04-29T09:26:33.549Z,35.78
2017-04-29T09:27:33.891Z,35.59
2017-04-29T09:28:33.917Z,35.88
2017-04-29T09:29:33.944Z,35.88
2017-04-29T09:30:33.949Z,35.59
2017-04-29T09:31:33.990Z,35.59
2017-04-29T09:32:34.024Z,35.69
2017-04-29T09:33:33.741Z,35.5
2017-04-29T09:34:34.081Z,35.59
2017-04-29T09:35:34.359Z,35.59
2017-04-29T09:36:33.814Z,35.69
2017-04-29T09:37:34.159Z,35.98
2017-04-29T09:38:33.876Z,35.98
2017-04-29T09:39:34.214Z,35.59
2017-04-29T09:40:34.176Z,35.5
2017-04-29T09:41:34.265Z,35.3
2017-04-29T09:42:34.295Z,35.4
2017-04-29T09:43:34.321Z,35.21
2017-04-29T09:44:34.348Z,35.21
2017-04-29T09:45:34.624Z,35.5
2017-04-29T09:46:34.405Z,35.3
2017-04-29T09:47:34.112Z,35.21
2017-04-29T09:48:34.454Z,35.69
2017-04-29T09:49:34.481Z,35.78
2017-04-29T09:50:34.445Z,35.69
2017-04-29T09:51:34.222Z,35.02
2017-04-29T09:52:34.566Z,35.98
2017-04-29T09:53:34.287Z,35.4
2017-04-29T09:54:34.616Z,35.59
2017-04-29T09:55:34.892Z,35.69
2017-04-29T09:56:34.668Z,35.59
2017-04-29T09:57:34.713Z,35.98
2017-04-29T09:58:34.723Z,35.5
2017-04-29T09:59:34.760Z,35.69
2017-04-29T10:00:35.023Z,35.3
2017-04-29T10:01:34.491Z,35.11
2017-04-29T10:02:34.826Z,35.3
2017-04-29T10:03:34.863Z,35.02
2017-04-29T10:04:34.888Z,35.21
2017-04-29T10:05:34.916Z,35.11
2017-04-29T10:06:34.940Z,35.11
2017-04-29T10:07:35.021Z,35.02
2017-04-29T10:08:34.994Z,35.21
2017-04-29T10:09:35.019Z,35.3
2017-04-29T10:10:34.736Z,35.21
2017-04-29T10:11:35.070Z,35.11
2017-04-29T10:12:35.102Z,35.3
2017-04-29T10:13:35.135Z,35.11
2017-04-29T10:14:35.154Z,35.11
2017-04-29T10:15:35.183Z,35.3
2017-04-29T10:16:35.212Z,35.03
2017-04-29T10:17:35.238Z,34.94
2017-04-29T10:18:35.270Z,34.94
2017-04-29T10:19:35.304Z,35.32
2017-04-29T10:20:35.318Z,35.13
2017-04-29T10:21:35.348Z,35.32
2017-04-29T10:22:35.369Z,35.32
2017-04-29T10:23:35.091Z,35.11
2017-04-29T10:24:35.427Z,35.13
2017-04-29T10:25:35.143Z,35.02
2017-04-29T10:26:35.171Z,35.03
2017-04-29T10:27:35.508Z,35.03
2017-04-29T10:28:35.537Z,35.03
2017-04-29T10:29:35.250Z,35.13
2017-04-29T10:30:35.598Z,35.13
2017-04-29T10:31:35.308Z,35.61
2017-04-29T10:32:35.644Z,35.8
2017-04-29T10:33:35.676Z,35.61
2017-04-29T10:34:35.705Z,35.52
2017-04-29T10:35:35.726Z,35.71
2017-04-29T10:36:35.756Z,34.55
2017-04-29T10:37:35.787Z,34.55
2017-04-29T10:38:35.801Z,32.91
2017-04-29T10:39:35.838Z,35.13
2017-04-29T10:40:35.554Z,35.13
2017-04-29T10:41:36.147Z,33.39
2017-04-29T10:42:35.921Z,32.62
2017-04-29T10:43:35.947Z,32.33
2017-04-29T10:44:35.973Z,33.58
2017-04-29T10:45:36.003Z,33.1
2017-04-29T10:46:35.964Z,33.87
2017-04-29T10:47:35.753Z,34.36
2017-04-29T10:48:36.125Z,34.55
2017-04-29T10:49:35.801Z,34.64
2017-04-29T10:50:36.138Z,34.45
2017-04-29T10:51:36.419Z,33.97
2017-04-29T10:52:36.199Z,33.39
2017-04-29T10:53:36.219Z,34.36
2017-04-29T10:54:36.249Z,34.06
2017-04-29T10:55:35.977Z,33.66
2017-04-29T10:56:36.550Z,34.55
2017-04-29T10:57:36.332Z,34.45
2017-04-29T10:58:36.352Z,35.22
2017-04-29T10:59:36.065Z,35.22
2017-04-29T11:00:36.102Z,32.81
2017-04-29T11:01:36.681Z,32.81
2017-04-29T11:02:36.471Z,32.62
2017-04-29T11:03:36.492Z,32.79
2017-04-29T11:04:36.523Z,34.24
2017-04-29T11:05:36.237Z,34.72
2017-04-29T11:06:36.546Z,32.7
2017-04-29T11:07:36.295Z,33.66
2017-04-29T11:08:36.320Z,34.82
2017-04-29T11:09:36.657Z,34.82
2017-04-29T11:10:36.685Z,35.5
2017-04-29T11:11:36.971Z,35.59
2017-04-29T11:12:36.741Z,36.07
2017-04-29T11:13:36.767Z,35.69
2017-04-29T11:14:36.480Z,35.78
2017-04-29T11:15:36.817Z,36.36
2017-04-29T11:16:36.886Z,36.07
2017-04-29T11:17:36.901Z,36.36
2017-04-29T11:18:36.898Z,36.17
2017-04-29T11:19:36.611Z,36.17
2017-04-29T11:20:36.643Z,35.4
2017-04-29T11:21:36.986Z,35.98
2017-04-29T11:22:36.698Z,34.14
2017-04-29T11:23:37.037Z,33.47
2017-04-29T11:24:37.055Z,34.05
2017-04-29T11:25:37.092Z,35.3
2017-04-29T11:26:37.121Z,35.69
2017-04-29T11:27:37.151Z,35.78
2017-04-29T11:28:37.172Z,35.88
2017-04-29T11:29:37.204Z,33.28
2017-04-29T11:30:37.228Z,32.6
2017-04-29T11:31:37.256Z,34.14
2017-04-29T11:32:37.285Z,34.92
2017-04-29T11:33:37.311Z,35.3
2017-04-29T11:34:37.330Z,35.21
2017-04-29T11:35:37.363Z,34.05
2017-04-29T11:36:37.392Z,32.99
2017-04-29T11:37:37.109Z,32.6
2017-04-29T11:38:37.131Z,33.09
2017-04-29T11:39:37.158Z,32.51
2017-04-29T11:40:37.499Z,33.18
2017-04-29T11:41:37.527Z,34.63
2017-04-29T11:42:37.556Z,35.21
2017-04-29T11:43:37.278Z,34.82
2017-04-29T11:44:37.610Z,34.53
2017-04-29T11:45:37.631Z,34.14
2017-04-29T11:46:37.663Z,34.63
2017-04-29T11:47:37.689Z,34.14
2017-04-29T11:48:37.401Z,32.99
2017-04-29T11:49:37.743Z,32.79
2017-04-29T11:50:37.774Z,32.79
2017-04-29T11:51:37.486Z,33.86
2017-04-29T11:52:37.829Z,35.02
2017-04-29T11:53:37.861Z,35.78
2017-04-29T11:54:37.565Z,35.88
2017-04-29T11:55:37.597Z,36.36
2017-04-29T11:56:37.935Z,35.78
2017-04-29T11:57:37.964Z,35.21
2017-04-29T11:58:37.997Z,34.44
2017-04-29T11:59:38.029Z,34.14
2017-04-29T12:00:38.045Z,34.84
2017-04-29T12:01:38.078Z,35.03
2017-04-29T12:02:38.105Z,35.13
2017-04-29T12:03:38.132Z,33.2
2017-04-29T12:04:38.154Z,33.12
2017-04-29T12:05:38.186Z,32.73
2017-04-29T12:06:38.216Z,33.4
2017-04-29T12:07:38.238Z,33.42
2017-04-29T12:08:38.280Z,33.52
2017-04-29T12:09:38.293Z,33.33
2017-04-29T12:10:38.325Z,32.36
2017-04-29T12:11:38.388Z,32.46
2017-04-29T12:12:38.075Z,32.46
2017-04-29T12:13:38.088Z,32.76
2017-04-29T12:14:38.432Z,32.28
2017-04-29T12:15:38.157Z,32.76
2017-04-29T12:16:38.494Z,31.51
2017-04-29T12:17:38.522Z,32.09
2017-04-29T12:18:38.553Z,30.44
2017-04-29T12:19:38.584Z,31.12
2017-04-29T12:20:38.605Z,29.97
2017-04-29T12:21:38.642Z,30.55
2017-04-29T12:22:38.918Z,30.57
2017-04-29T12:23:38.695Z,30.08
2017-04-29T12:24:38.725Z,29.13
2017-04-29T12:25:38.441Z,29.33
2017-04-29T12:26:38.776Z,27.79
2017-04-29T12:27:39.067Z,27.6
2017-04-29T12:28:38.866Z,27.71
2017-04-29T12:29:38.873Z,27.22
2017-04-29T12:30:38.900Z,27.13
2017-04-29T12:31:38.930Z,27.43
2017-04-29T12:32:40.711Z,27.82
2017-04-29T12:33:38.982Z,28.2
2017-04-29T12:34:38.708Z,27.83
2017-04-29T12:35:38.736Z,27.73
2017-04-29T12:36:39.073Z,27.54
2017-04-29T12:37:39.093Z,27.83
2017-04-29T12:38:39.137Z,27.45
2017-04-29T12:39:39.167Z,25.99
2017-04-29T12:40:39.195Z,26.96
2017-04-29T12:41:39.228Z,27.54
2017-04-29T12:42:38.945Z,27.73
2017-04-29T12:43:39.297Z,27.83
2017-04-29T12:44:39.320Z,28.03
2017-04-29T12:45:39.351Z,28.02
2017-04-29T12:46:39.375Z,28.02
2017-04-29T12:47:39.414Z,28.3
2017-04-29T12:48:39.440Z,28.02
2017-04-29T12:49:39.159Z,28.5
2017-04-29T12:50:39.500Z,28.02
2017-04-29T12:51:39.519Z,27.82
2017-04-29T12:52:39.561Z,27.72
2017-04-29T12:53:39.590Z,26.75
2017-04-29T12:54:39.618Z,27.04